createdAt,value
2019-05-17T00:00:18.921Z,24.03
2019-05-17T00:02:47.462Z,21.03
2019-05-17T00:05:17.762Z,19.53
2019-05-17T00:07:47.506Z,21.40
2019-05-17T00:10:17.304Z,18.77
2019-05-17T00:12:47.095Z,18.93
2019-05-17T00:15:16.924Z,20.87
2019-05-17T00:17:46.981Z,19.43
2019-05-17T00:20:17.455Z,18.43
2019-05-17T00:22:47.173Z,18.50
2019-05-17T00:25:17.219Z,18.97
2019-05-17T00:27:47.491Z,19.00
2019-05-17T00:30:17.505Z,18.10
2019-05-17T00:32:47.596Z,23.10
2019-05-17T00:35:17.905Z,21.20
2019-05-17T00:37:46.679Z,17.80
2019-05-17T00:40:16.675Z,19.13
2019-05-17T00:42:46.685Z,19.83
2019-05-17T00:45:17.501Z,18.90
2019-05-17T00:47:46.801Z,18.17
2019-05-17T00:50:17.036Z,17.47
2019-05-17T00:52:47.437Z,19.17
2019-05-17T00:55:17.649Z,19.23
2019-05-17T00:57:47.454Z,18.57
2019-05-17T01:00:17.307Z,19.80
2019-05-17T01:02:46.742Z,18.20
2019-05-17T01:05:17.037Z,15.80
2019-05-17T01:07:47.018Z,18.73
2019-05-17T01:10:16.868Z,17.07
2019-05-17T01:12:45.516Z,18.90
2019-05-17T01:15:16.780Z,16.33
2019-05-17T01:17:47.291Z,17.47
2019-05-17T01:20:17.374Z,17.87
2019-05-17T01:22:47.407Z,17.30
2019-05-17T01:25:17.222Z,19.87
2019-05-17T01:27:47.456Z,16.20
2019-05-17T01:30:17.608Z,20.10
2019-05-17T01:32:46.522Z,16.27
2019-05-17T01:35:16.717Z,18.53
2019-05-17T01:37:47.530Z,14.60
2019-05-17T01:40:17.636Z,16.03
2019-05-17T01:42:46.739Z,15.33
2019-05-17T01:45:16.678Z,16.67
2019-05-17T01:47:47.558Z,17.67
2019-05-17T01:50:17.570Z,16.23
2019-05-17T01:52:46.302Z,16.00
2019-05-17T01:55:17.176Z,16.03
2019-05-17T01:57:47.644Z,16.23
2019-05-17T02:00:17.477Z,15.20
2019-05-17T02:02:53.455Z,15.37
2019-05-17T02:05:22.119Z,18.00
2019-05-17T02:07:50.522Z,17.30
2019-05-17T02:10:19.409Z,16.13
2019-05-17T02:12:49.103Z,16.53
2019-05-17T02:15:18.297Z,17.10
2019-05-17T02:17:47.086Z,18.63
2019-05-17T02:20:17.094Z,17.63
2019-05-17T02:22:47.313Z,18.30
2019-05-17T02:25:16.854Z,16.40
2019-05-17T02:27:45.492Z,18.83
2019-05-17T02:30:15.384Z,18.00
2019-05-17T02:32:44.638Z,18.10
2019-05-17T02:35:14.605Z,18.90
2019-05-17T02:37:43.834Z,25.67
2019-05-17T02:40:14.963Z,20.37
2019-05-17T02:42:43.999Z,23.30
2019-05-17T02:45:13.988Z,22.87
2019-05-17T02:47:43.534Z,22.17
2019-05-17T02:50:13.603Z,23.37
2019-05-17T02:52:43.537Z,23.70
2019-05-17T02:55:13.803Z,23.17
2019-05-17T02:57:43.587Z,22.80
2019-05-17T03:00:14.157Z,21.10
2019-05-17T03:02:43.885Z,24.87
2019-05-17T03:05:14.181Z,21.83
2019-05-17T03:07:43.928Z,22.60
2019-05-17T03:10:23.053Z,25.20
2019-05-17T03:12:44.440Z,24.90
2019-05-17T03:15:13.587Z,23.40
2019-05-17T03:17:44.036Z,27.17
2019-05-17T03:20:14.052Z,24.10
2019-05-17T03:22:44.100Z,24.10
2019-05-17T03:25:13.977Z,25.33
2019-05-17T03:27:43.416Z,23.53
2019-05-17T03:30:17.161Z,23.30
2019-05-17T03:32:47.526Z,23.33
2019-05-17T03:35:17.204Z,25.00
2019-05-17T03:37:44.826Z,23.60
2019-05-17T03:40:30.651Z,27.73
2019-05-17T03:42:44.019Z,23.50
2019-05-17T03:45:13.911Z,26.63
2019-05-17T03:47:44.498Z,24.27
2019-05-17T03:50:13.766Z,21.53
2019-05-17T03:52:44.285Z,22.30
2019-05-17T03:58:03.139Z,26.33
2019-05-17T04:00:34.872Z,23.87
2019-05-17T04:03:02.926Z,21.00
2019-05-17T04:05:33.369Z,21.30
2019-05-17T04:08:03.720Z,21.93
2019-05-17T04:10:33.354Z,23.17
2019-05-17T04:13:04.174Z,25.70
2019-05-17T04:15:33.016Z,23.20
2019-05-17T04:18:04.205Z,21.37
2019-05-17T04:20:33.235Z,20.60
2019-05-17T04:23:03.853Z,22.50
2019-05-17T04:25:33.515Z,21.90
2019-05-17T04:28:03.016Z,21.00
2019-05-17T04:30:32.725Z,21.23
2019-05-17T04:33:03.652Z,22.97
2019-05-17T04:35:32.787Z,22.20
2019-05-17T04:38:04.331Z,21.40
2019-05-17T04:40:34.082Z,20.77
2019-05-17T04:43:03.262Z,21.40
2019-05-17T04:45:33.509Z,18.70
2019-05-17T04:48:03.979Z,20.77
2019-05-17T04:50:33.711Z,22.87
2019-05-17T04:53:02.909Z,21.67
2019-05-17T04:55:34.100Z,20.67
2019-05-17T04:58:04.076Z,20.73
2019-05-17T05:00:34.031Z,21.27
2019-05-17T05:03:04.187Z,22.97
2019-05-17T05:05:33.449Z,25.40
2019-05-17T05:08:02.999Z,19.23
2019-05-17T05:10:33.773Z,20.97
2019-05-17T05:13:03.151Z,17.00
2019-05-17T05:15:44.200Z,21.80
2019-05-17T05:18:13.393Z,18.67
2019-05-17T05:20:43.608Z,22.63
2019-05-17T05:23:13.147Z,20.23
2019-05-17T05:25:43.075Z,18.40
2019-05-17T05:28:11.875Z,19.63
2019-05-17T05:30:42.301Z,19.30
2019-05-17T05:33:12.982Z,23.03
2019-05-17T05:35:42.498Z,19.83
2019-05-17T05:38:12.911Z,21.90
2019-05-17T05:40:42.743Z,20.93
2019-05-17T05:43:11.985Z,20.90
2019-05-17T05:45:41.658Z,17.60
2019-05-17T05:48:12.453Z,17.20
2019-05-17T05:50:42.567Z,18.77
2019-05-17T05:53:12.933Z,16.70
2019-05-17T05:55:42.842Z,17.93
2019-05-17T05:58:12.123Z,19.30
2019-05-17T06:00:42.654Z,13.77
2019-05-17T06:03:12.000Z,17.90
2019-05-17T06:05:42.270Z,16.37
2019-05-17T06:08:12.204Z,17.57
2019-05-17T06:10:42.607Z,15.90
2019-05-17T06:13:12.977Z,18.30
2019-05-17T06:15:42.929Z,19.93
2019-05-17T06:18:12.328Z,14.03
2019-05-17T06:20:41.794Z,14.60
2019-05-17T06:23:12.237Z,15.90
2019-05-17T06:25:43.144Z,16.30
2019-05-17T06:28:11.525Z,15.10
2019-05-17T06:30:42.680Z,18.13
2019-05-17T06:33:12.067Z,15.23
2019-05-17T06:35:42.392Z,14.97
2019-05-17T06:38:12.036Z,17.47
2019-05-17T06:40:42.137Z,16.90
2019-05-17T06:43:12.953Z,20.93
2019-05-17T06:45:41.837Z,15.90
2019-05-17T06:48:11.859Z,14.67
2019-05-17T06:50:42.968Z,13.20
2019-05-17T06:53:12.297Z,16.10
2019-05-17T06:55:42.400Z,10.70
2019-05-17T06:58:11.841Z,14.80
2019-05-17T07:00:40.593Z,15.33
2019-05-17T07:03:09.553Z,16.73
2019-05-17T07:05:50.197Z,12.00
2019-05-17T07:08:20.144Z,13.90
2019-05-17T07:10:50.273Z,13.87
2019-05-17T07:13:19.815Z,11.57
2019-05-17T07:15:50.959Z,14.80
2019-05-17T07:18:19.466Z,13.30
2019-05-17T07:20:50.000Z,13.73
2019-05-17T07:23:19.697Z,12.57
2019-05-17T07:25:50.403Z,12.73
2019-05-17T07:28:19.933Z,14.30
2019-05-17T07:30:50.341Z,14.37
2019-05-17T07:33:19.916Z,11.73
2019-05-17T07:35:50.122Z,12.50
2019-05-17T07:38:19.936Z,10.70
2019-05-17T07:40:50.123Z,9.73
2019-05-17T07:43:20.794Z,10.53
2019-05-17T07:45:49.637Z,10.30
2019-05-17T07:48:19.987Z,11.37
2019-05-17T07:50:50.213Z,11.53
2019-05-17T07:53:20.070Z,10.37
2019-05-17T07:55:50.640Z,10.70
2019-05-17T07:58:21.353Z,13.53
2019-05-17T08:00:51.125Z,11.17
2019-05-17T08:03:20.933Z,10.47
2019-05-17T08:05:50.554Z,13.83
2019-05-17T08:08:20.862Z,12.80
2019-05-17T08:10:51.086Z,8.77
2019-05-17T08:13:27.340Z,12.10
2019-05-17T08:15:50.206Z,12.10
2019-05-17T08:18:20.361Z,10.60
2019-05-17T08:20:50.176Z,10.73
2019-05-17T08:23:20.213Z,10.40
2019-05-17T08:25:53.698Z,12.03
2019-05-17T08:28:21.389Z,11.57
2019-05-17T08:30:50.199Z,11.20
2019-05-17T08:33:19.472Z,10.30
2019-05-17T08:35:49.485Z,10.37
2019-05-17T08:38:19.759Z,9.33
2019-05-17T08:40:50.750Z,7.57
2019-05-17T08:43:21.103Z,7.70
2019-05-17T08:45:50.148Z,9.90
2019-05-17T08:48:20.587Z,7.70
2019-05-17T08:50:49.482Z,7.10
2019-05-17T08:53:19.844Z,7.80
2019-05-17T08:55:50.089Z,6.23
2019-05-17T08:58:21.299Z,6.83
2019-05-17T09:00:50.470Z,7.60
2019-05-17T09:03:19.581Z,7.60
2019-05-17T09:05:52.082Z,9.20
2019-05-17T09:08:20.331Z,7.93
2019-05-17T09:10:50.424Z,5.90
2019-05-17T09:13:19.569Z,7.87
2019-05-17T09:15:49.436Z,4.70
2019-05-17T09:18:20.386Z,6.93
2019-05-17T09:20:49.513Z,6.30
2019-05-17T09:23:19.751Z,5.00
2019-05-17T09:25:50.088Z,6.60
2019-05-17T09:28:20.527Z,5.23
2019-05-17T09:30:50.693Z,4.57
2019-05-17T09:33:20.420Z,5.37
2019-05-17T09:35:50.040Z,5.27
2019-05-17T09:38:20.389Z,5.37
2019-05-17T09:40:50.506Z,5.23
2019-05-17T09:43:20.473Z,4.87
2019-05-17T09:45:50.845Z,5.87
2019-05-17T09:48:19.818Z,4.63
2019-05-17T09:50:50.427Z,6.37
2019-05-17T09:53:20.149Z,8.03
2019-05-17T09:55:49.756Z,5.70
2019-05-17T09:58:21.431Z,5.60
2019-05-17T10:00:49.507Z,5.83
2019-05-17T10:03:23.245Z,6.17
2019-05-17T10:05:49.599Z,5.13
2019-05-17T10:08:18.320Z,4.30
2019-05-17T10:11:02.252Z,4.63
2019-05-17T10:13:17.186Z,5.73
2019-05-17T10:15:45.649Z,5.37
2019-05-17T10:18:14.048Z,5.37
2019-05-17T10:20:42.460Z,6.03
2019-05-17T10:23:11.006Z,5.60
2019-05-17T10:25:39.978Z,4.83
2019-05-17T10:28:10.007Z,4.03
2019-05-17T10:30:39.807Z,4.77
2019-05-17T10:33:09.929Z,5.57
2019-05-17T10:35:40.736Z,4.30
2019-05-17T10:38:10.250Z,3.50
2019-05-17T10:40:40.941Z,3.73
2019-05-17T10:43:10.054Z,6.00
2019-05-17T10:45:40.158Z,4.33
2019-05-17T10:48:10.212Z,4.30
2019-05-17T10:50:40.715Z,4.50
2019-05-17T10:53:09.977Z,4.63
2019-05-17T10:55:39.706Z,3.93
2019-05-17T10:58:10.068Z,5.07
2019-05-17T11:00:41.163Z,3.63
2019-05-17T11:03:09.773Z,7.93
2019-05-17T11:05:40.283Z,5.37
2019-05-17T11:08:10.751Z,5.13
2019-05-17T11:10:39.426Z,7.20
2019-05-17T11:13:08.110Z,9.03
2019-05-17T11:15:36.535Z,3.53
2019-05-17T11:18:05.022Z,5.53
2019-05-17T11:20:33.567Z,4.73
2019-05-17T11:23:02.099Z,6.50
2019-05-17T11:25:30.602Z,5.23
2019-05-17T11:27:59.023Z,6.47
2019-05-17T11:30:27.416Z,8.63
2019-05-17T11:32:55.914Z,4.73
2019-05-17T11:35:24.837Z,5.53
2019-05-17T11:37:53.375Z,8.67
2019-05-17T11:40:22.099Z,6.30
2019-05-17T11:42:50.567Z,6.50
2019-05-17T11:45:27.222Z,4.77
2019-05-17T11:47:49.197Z,5.87
2019-05-17T11:50:17.739Z,4.13
2019-05-17T11:52:46.213Z,4.30
2019-05-17T11:55:15.170Z,8.00
2019-05-17T11:57:43.609Z,5.53
2019-05-17T12:00:13.022Z,5.93
2019-05-17T12:02:41.514Z,5.77
2019-05-17T12:05:10.258Z,7.80
2019-05-17T12:07:38.674Z,5.13
2019-05-17T12:10:08.509Z,5.27
2019-05-17T12:12:36.923Z,11.40
2019-05-17T12:15:07.370Z,6.93
2019-05-17T12:17:35.795Z,5.63
2019-05-17T12:20:06.158Z,5.90
2019-05-17T12:22:34.589Z,6.53
2019-05-17T12:25:03.754Z,5.80
2019-05-17T12:27:32.181Z,7.97
2019-05-17T12:30:00.620Z,6.03
2019-05-17T12:32:29.019Z,6.90
2019-05-17T12:34:57.459Z,5.97
2019-05-17T12:37:25.867Z,6.07
2019-05-17T12:39:54.388Z,8.50
2019-05-17T12:42:22.842Z,9.13
2019-05-17T12:44:51.273Z,6.47
2019-05-17T12:47:19.726Z,5.63
2019-05-17T12:49:48.117Z,6.70
2019-05-17T12:52:16.551Z,8.20
2019-05-17T12:54:45.011Z,6.17
2019-05-17T12:57:13.389Z,7.70
2019-05-17T12:59:41.890Z,10.30
2019-05-17T13:02:12.440Z,12.33
2019-05-17T13:04:40.503Z,7.60
2019-05-17T13:07:08.906Z,9.57
2019-05-17T13:09:37.427Z,8.07
2019-05-17T13:12:05.898Z,12.47
2019-05-17T13:14:34.327Z,6.50
2019-05-17T13:17:02.781Z,7.07
2019-05-17T13:19:31.196Z,9.03
2019-05-17T13:21:59.585Z,9.00
2019-05-17T13:24:28.014Z,6.50
2019-05-17T13:26:56.397Z,5.70
2019-05-17T13:29:24.913Z,7.20
2019-05-17T13:31:53.314Z,6.73
2019-05-17T13:34:21.718Z,6.93
2019-05-17T13:36:50.222Z,10.77
2019-05-17T13:39:18.646Z,7.40
2019-05-17T13:41:47.132Z,7.43
2019-05-17T13:44:15.680Z,7.33
2019-05-17T13:46:44.150Z,7.77
2019-05-17T13:49:12.577Z,7.90
2019-05-17T13:51:40.989Z,7.17
2019-05-17T13:54:09.552Z,8.10
2019-05-17T13:56:37.950Z,7.17
2019-05-17T13:59:06.423Z,8.17
2019-05-17T14:01:34.921Z,9.00
2019-05-17T14:04:03.337Z,10.23
2019-05-17T14:06:31.746Z,8.30
2019-05-17T14:09:00.141Z,10.40
2019-05-17T14:11:28.644Z,9.20
2019-05-17T14:13:57.062Z,8.87
2019-05-17T14:16:25.645Z,9.60
2019-05-17T14:18:54.031Z,9.07
2019-05-17T14:21:22.521Z,10.23
2019-05-17T14:23:50.979Z,8.70
2019-05-17T14:26:19.401Z,8.43
2019-05-17T14:28:47.878Z,8.03
2019-05-17T14:31:16.310Z,8.80
2019-05-17T14:33:44.745Z,7.70
2019-05-17T14:36:13.130Z,9.83
2019-05-17T14:38:41.611Z,9.40
2019-05-17T14:41:10.137Z,9.77
2019-05-17T14:43:38.520Z,9.67
2019-05-17T14:46:06.965Z,11.97
2019-05-17T14:48:35.512Z,14.63
2019-05-17T14:51:04.020Z,12.27
2019-05-17T14:53:32.418Z,10.10
2019-05-17T14:56:00.845Z,8.73
2019-05-17T14:58:29.263Z,15.50
2019-05-17T15:00:57.753Z,8.00
2019-05-17T15:03:26.174Z,11.47
2019-05-17T15:05:54.562Z,9.10
2019-05-17T15:08:23.055Z,11.43
2019-05-17T15:10:51.539Z,7.47
2019-05-17T15:13:19.981Z,10.53
2019-05-17T15:15:48.522Z,12.23
2019-05-17T15:18:16.953Z,11.60
2019-05-17T15:20:45.584Z,11.60
2019-05-17T15:23:14.069Z,11.77
2019-05-17T15:25:42.483Z,14.20
2019-05-17T15:28:10.992Z,11.50
2019-05-17T15:30:39.465Z,9.83
2019-05-17T15:33:08.735Z,11.03
2019-05-17T15:35:37.132Z,10.70
2019-05-17T15:38:05.670Z,9.03
2019-05-17T15:40:34.109Z,10.60
2019-05-17T15:43:02.548Z,14.83
2019-05-17T15:45:30.987Z,12.57
2019-05-17T15:47:59.405Z,13.63
2019-05-17T15:50:27.943Z,11.47
2019-05-17T15:52:56.424Z,11.10
2019-05-17T15:55:25.010Z,11.50
2019-05-17T15:57:53.410Z,11.73
2019-05-17T16:00:21.976Z,9.07
2019-05-17T16:02:50.534Z,12.87
2019-05-17T16:05:19.107Z,9.87
2019-05-17T16:07:47.589Z,10.97
2019-05-17T16:10:16.345Z,10.23
2019-05-17T16:13:00.813Z,12.10
2019-05-17T16:15:15.124Z,9.80
2019-05-17T16:17:43.616Z,10.03
2019-05-17T16:20:16.705Z,9.37
2019-05-17T16:22:43.733Z,10.30
2019-05-17T16:25:12.379Z,9.27
2019-05-17T16:27:40.942Z,12.97
2019-05-17T16:30:09.901Z,10.77
2019-05-17T16:32:38.316Z,9.30
2019-05-17T16:35:06.873Z,10.13
2019-05-17T16:37:35.280Z,9.27
2019-05-17T16:40:05.227Z,10.07
2019-05-17T16:42:33.676Z,18.30
2019-05-17T16:45:02.391Z,10.93
2019-05-17T16:47:30.974Z,11.67
2019-05-17T16:49:59.445Z,8.87
2019-05-17T16:52:27.915Z,10.77
2019-05-17T16:54:56.379Z,11.03
2019-05-17T16:57:24.835Z,8.90
2019-05-17T16:59:53.297Z,10.17
2019-05-17T17:02:21.877Z,9.47
2019-05-17T17:04:50.391Z,11.70
2019-05-17T17:07:18.894Z,8.60
2019-05-17T17:09:47.367Z,8.80
2019-05-17T17:12:15.829Z,8.93
2019-05-17T17:14:44.257Z,8.70
2019-05-17T17:17:13.483Z,10.10
2019-05-17T17:19:42.204Z,10.27
2019-05-17T17:22:10.615Z,13.23
2019-05-17T17:24:39.080Z,9.93
2019-05-17T17:27:07.497Z,9.93
2019-05-17T17:29:35.984Z,10.43
2019-05-17T17:32:04.456Z,9.70
2019-05-17T17:34:32.857Z,9.87
2019-05-17T17:37:01.337Z,10.20
2019-05-17T17:39:29.761Z,8.90
2019-05-17T17:41:58.173Z,9.87
2019-05-17T17:44:26.654Z,11.60
2019-05-17T17:46:55.054Z,7.63
2019-05-17T17:49:23.497Z,9.57
2019-05-17T17:51:51.893Z,7.63
2019-05-17T17:54:20.302Z,9.67
2019-05-17T17:56:48.862Z,7.73
2019-05-17T17:59:17.351Z,10.30
2019-05-17T18:01:45.963Z,8.93
2019-05-17T18:04:14.527Z,9.47
2019-05-17T18:06:42.968Z,8.70
2019-05-17T18:09:11.381Z,7.40
2019-05-17T18:11:39.943Z,10.80
2019-05-17T18:14:13.459Z,11.20
2019-05-17T18:16:38.567Z,12.07
2019-05-17T18:19:07.125Z,11.33
2019-05-17T18:21:35.562Z,9.20
2019-05-17T18:24:04.217Z,7.20
2019-05-17T18:26:32.617Z,7.33
2019-05-17T18:29:01.045Z,7.00
2019-05-17T18:31:29.464Z,8.33
2019-05-17T18:33:57.965Z,10.93
2019-05-17T18:36:26.358Z,8.40
2019-05-17T18:38:55.209Z,10.40
2019-05-17T18:41:23.710Z,8.43
2019-05-17T18:43:52.274Z,7.30
2019-05-17T18:46:21.274Z,7.17
2019-05-17T18:48:49.738Z,6.90
2019-05-17T18:51:18.218Z,6.40
2019-05-17T18:53:46.759Z,9.40
2019-05-17T18:56:15.167Z,8.37
2019-05-17T18:58:43.608Z,13.60
2019-05-17T19:01:12.137Z,9.97
2019-05-17T19:03:40.627Z,10.37
2019-05-17T19:06:09.111Z,11.60
2019-05-17T19:08:37.575Z,14.03
2019-05-17T19:11:06.280Z,9.13
2019-05-17T19:13:34.715Z,7.93
2019-05-17T19:16:03.277Z,23.90
2019-05-17T19:18:31.753Z,19.27
2019-05-17T19:21:00.156Z,13.03
2019-05-17T19:23:28.660Z,15.10
2019-05-17T19:25:57.064Z,13.33
2019-05-17T19:28:25.548Z,7.83
2019-05-17T19:30:53.965Z,9.60
2019-05-17T19:33:22.445Z,10.07
2019-05-17T19:35:50.950Z,8.23
2019-05-17T19:38:19.441Z,7.53
2019-05-17T19:40:47.990Z,7.80
2019-05-17T19:43:16.420Z,11.73
2019-05-17T19:45:45.305Z,7.33
2019-05-17T19:48:13.796Z,9.30
2019-05-17T19:50:42.331Z,6.60
2019-05-17T19:53:10.894Z,6.77
2019-05-17T19:55:39.319Z,6.70
2019-05-17T19:58:07.748Z,8.80
2019-05-17T20:00:36.316Z,6.23
2019-05-17T20:03:04.902Z,7.17
2019-05-17T20:05:33.317Z,6.40
2019-05-17T20:08:01.738Z,6.77
2019-05-17T20:10:30.231Z,9.67
2019-05-17T20:12:58.687Z,14.20
2019-05-17T20:15:34.583Z,9.50
2019-05-17T20:17:57.219Z,8.10
2019-05-17T20:20:25.622Z,8.20
2019-05-17T20:22:54.112Z,10.67
2019-05-17T20:25:23.844Z,7.83
2019-05-17T20:27:52.409Z,7.63
2019-05-17T20:30:20.997Z,13.10
2019-05-17T20:32:49.487Z,7.20
2019-05-17T20:35:18.166Z,9.30
2019-05-17T20:37:46.540Z,9.37
2019-05-17T20:40:16.291Z,13.83
2019-05-17T20:42:44.712Z,9.60
2019-05-17T20:45:13.340Z,8.07
2019-05-17T20:47:41.846Z,10.97
2019-05-17T20:50:11.083Z,9.43
2019-05-17T20:52:39.587Z,10.87
2019-05-17T20:55:09.328Z,12.13
2019-05-17T20:57:37.760Z,9.97
2019-05-17T21:00:09.926Z,8.97
2019-05-17T21:02:38.318Z,12.30
2019-05-17T21:05:07.089Z,9.40
2019-05-17T21:07:35.521Z,12.33
2019-05-17T21:10:08.153Z,7.87
2019-05-17T21:12:36.583Z,8.60
2019-05-17T21:15:06.716Z,9.17
2019-05-17T21:17:35.130Z,8.37
2019-05-17T21:20:04.893Z,7.50
2019-05-17T21:22:33.296Z,11.27
2019-05-17T21:25:01.746Z,12.07
2019-05-17T21:27:30.255Z,7.70
2019-05-17T21:29:58.668Z,7.47
2019-05-17T21:32:27.066Z,7.90
2019-05-17T21:34:55.509Z,10.10
2019-05-17T21:37:23.993Z,9.00
2019-05-17T21:39:52.400Z,7.70
2019-05-17T21:42:20.853Z,6.77
2019-05-17T21:44:49.369Z,7.20
2019-05-17T21:47:17.782Z,6.70
2019-05-17T21:49:46.211Z,9.27
2019-05-17T21:52:14.634Z,7.50
2019-05-17T21:54:43.045Z,6.87
2019-05-17T21:57:11.464Z,11.37
2019-05-17T21:59:39.908Z,16.23
2019-05-17T22:02:08.472Z,19.77
2019-05-17T22:04:37.712Z,8.90
2019-05-17T22:07:06.327Z,7.83
2019-05-17T22:09:34.752Z,9.33
2019-05-17T22:12:04.869Z,9.80
2019-05-17T22:14:33.345Z,7.97
2019-05-17T22:17:01.835Z,8.67
2019-05-17T22:19:30.236Z,7.83
2019-05-17T22:21:58.636Z,8.60
2019-05-17T22:24:27.039Z,8.67
2019-05-17T22:26:55.474Z,13.20
2019-05-17T22:29:23.888Z,7.30
2019-05-17T22:31:52.305Z,10.10
2019-05-17T22:34:20.701Z,10.03
2019-05-17T22:36:49.119Z,9.80
2019-05-17T22:39:17.633Z,9.60
2019-05-17T22:41:46.054Z,8.17
2019-05-17T22:44:14.487Z,10.30
2019-05-17T22:46:42.917Z,8.00
2019-05-17T22:49:11.322Z,9.20
2019-05-17T22:51:39.762Z,10.37
2019-05-17T22:54:08.176Z,10.60
2019-05-17T22:56:36.578Z,8.30
2019-05-17T22:59:05.159Z,8.97
2019-05-17T23:01:33.609Z,13.00
2019-05-17T23:04:02.052Z,8.60
2019-05-17T23:06:30.451Z,9.50
2019-05-17T23:08:58.858Z,9.17
2019-05-17T23:11:27.265Z,12.07
2019-05-17T23:13:55.675Z,11.63
2019-05-17T23:16:24.081Z,10.40
2019-05-17T23:18:56.703Z,16.03
2019-05-17T23:21:25.112Z,11.13
2019-05-17T23:23:53.528Z,11.73
2019-05-17T23:26:22.016Z,11.10
2019-05-17T23:28:50.448Z,16.70
2019-05-17T23:31:18.853Z,10.27
2019-05-17T23:33:47.256Z,11.33
2019-05-17T23:36:15.666Z,8.90
2019-05-17T23:38:44.065Z,12.00
2019-05-17T23:41:12.482Z,9.30
2019-05-17T23:43:40.985Z,11.80
2019-05-17T23:46:09.393Z,8.10
2019-05-17T23:48:37.844Z,10.53
2019-05-17T23:51:06.267Z,10.13
2019-05-17T23:53:34.664Z,9.17
2019-05-17T23:56:03.100Z,11.97
2019-05-17T23:58:31.524Z,9.00
